createdAt,value
2022-11-05T00:02:42.673Z,101066.13
2022-11-05T00:05:30.615Z,101087.38
2022-11-05T00:08:18.348Z,101086.59
2022-11-05T00:10:46.201Z,101096.69
2022-11-05T00:13:32.918Z,101105.53
2022-11-05T00:16:18.132Z,101114.25
2022-11-05T00:19:05.846Z,101120.78
2022-11-05T00:21:52.935Z,101137.94
2022-11-05T00:24:38.190Z,101163.22
2022-11-05T00:27:06.075Z,101173.56
2022-11-05T00:29:33.810Z,101175.28
2022-11-05T00:32:01.598Z,101183.09
2022-11-05T00:34:29.462Z,101185.75
2022-11-05T00:36:58.560Z,101194.47
2022-11-05T00:39:27.591Z,101209.00
2022-11-05T00:42:09.193Z,101210.88
2022-11-05T00:44:56.382Z,101220.75
2022-11-05T00:47:41.816Z,101231.78
2022-11-05T00:50:10.715Z,101241.22
2022-11-05T00:52:58.781Z,101246.28
2022-11-05T00:55:33.371Z,101255.59
2022-11-05T00:58:02.625Z,101263.31
2022-11-05T01:00:32.864Z,101262.72
2022-11-05T01:03:02.528Z,101264.44
2022-11-05T01:05:31.683Z,101273.56
2022-11-05T01:08:01.964Z,101290.28
2022-11-05T01:10:30.181Z,101297.44
2022-11-05T01:12:58.715Z,101310.16
2022-11-05T01:15:26.545Z,101320.94
2022-11-05T01:17:54.318Z,101300.63
2022-11-05T01:20:22.114Z,101307.16
2022-11-05T01:22:49.868Z,101305.66
2022-11-05T01:25:19.244Z,101310.66
2022-11-05T01:27:46.972Z,101295.59
2022-11-05T01:30:15.382Z,101295.41
2022-11-05T01:32:43.255Z,101296.88
2022-11-05T01:35:14.346Z,101303.00
2022-11-05T01:37:42.708Z,101310.59
2022-11-05T01:40:12.608Z,101307.84
2022-11-05T01:42:41.724Z,101315.31
2022-11-05T01:45:15.497Z,101310.56
2022-11-05T01:47:59.937Z,101301.59
2022-11-05T01:50:38.618Z,101300.28
2022-11-05T01:53:14.012Z,101297.72
2022-11-05T01:55:46.115Z,101282.91
2022-11-05T01:58:23.354Z,101274.38
2022-11-05T02:00:53.242Z,101283.28
2022-11-05T02:03:21.091Z,101278.31
2022-11-05T02:05:50.726Z,101290.53
2022-11-05T02:08:25.368Z,101293.28
2022-11-05T02:10:56.160Z,101298.69
2022-11-05T02:13:25.348Z,101291.00
2022-11-05T02:16:04.340Z,101298.22
2022-11-05T02:18:47.715Z,101299.63
2022-11-05T02:21:33.809Z,101285.91
2022-11-05T02:24:39.246Z,101299.81
2022-11-05T02:27:15.756Z,101291.59
2022-11-05T02:30:09.149Z,101290.91
2022-11-05T02:32:54.538Z,101306.03
2022-11-05T02:35:51.605Z,101308.94
2022-11-05T02:38:32.310Z,101302.44
2022-11-05T02:41:07.666Z,101293.91
2022-11-05T02:43:47.057Z,101296.09
2022-11-05T02:46:28.789Z,101296.22
2022-11-05T02:49:05.821Z,101294.88
2022-11-05T02:51:40.580Z,101280.34
2022-11-05T02:54:17.362Z,101295.34
2022-11-05T02:56:47.821Z,101305.69
2022-11-05T02:59:16.953Z,101310.53
2022-11-05T03:01:47.354Z,101305.91
2022-11-05T03:04:20.424Z,101309.41
2022-11-05T03:07:14.671Z,101303.66
2022-11-05T03:10:07.351Z,101299.47
2022-11-05T03:12:44.158Z,101282.63
2022-11-05T03:15:22.728Z,101290.44
2022-11-05T03:18:02.098Z,101303.16
2022-11-05T03:20:36.222Z,101310.38
2022-11-05T03:23:13.305Z,101313.38
2022-11-05T03:25:48.469Z,101307.50
2022-11-05T03:28:18.942Z,101310.16
2022-11-05T03:30:47.107Z,101315.66
2022-11-05T03:33:20.202Z,101323.00
2022-11-05T03:35:54.281Z,101318.75
2022-11-05T03:38:27.107Z,101317.31
2022-11-05T03:40:59.661Z,101321.03
2022-11-05T03:43:31.504Z,101338.00
2022-11-05T03:46:04.321Z,101332.94
2022-11-05T03:48:34.750Z,101335.47
2022-11-05T03:51:13.198Z,101331.97
2022-11-05T03:53:50.232Z,101329.78
2022-11-05T03:56:21.923Z,101335.59
2022-11-05T03:58:54.695Z,101334.25
2022-11-05T04:01:26.345Z,101339.75
2022-11-05T04:03:54.215Z,101345.63
2022-11-05T04:06:40.533Z,101350.69
2022-11-05T04:09:29.635Z,101355.56
2022-11-05T04:12:16.326Z,101364.44
2022-11-05T04:14:44.027Z,101366.72
2022-11-05T04:17:10.818Z,101370.16
2022-11-05T04:19:57.676Z,101372.16
2022-11-05T04:22:46.240Z,101377.81
2022-11-05T04:25:15.936Z,101374.28
2022-11-05T04:27:45.773Z,101374.47
2022-11-05T04:30:20.369Z,101382.03
2022-11-05T04:33:06.483Z,101391.16
2022-11-05T04:35:36.367Z,101401.22
2022-11-05T04:38:07.113Z,101383.13
2022-11-05T04:40:35.016Z,101388.00
2022-11-05T04:43:03.252Z,101396.97
2022-11-05T04:45:34.341Z,101394.88
2022-11-05T04:48:05.043Z,101400.22
2022-11-05T04:50:33.939Z,101390.75
2022-11-05T04:53:01.968Z,101393.56
2022-11-05T04:55:31.245Z,101394.41
2022-11-05T04:58:00.817Z,101386.81
2022-11-05T05:00:28.777Z,101392.81
2022-11-05T05:02:56.618Z,101394.72
2022-11-05T05:05:24.482Z,101396.78
2022-11-05T05:07:52.367Z,101400.44
2022-11-05T05:10:20.297Z,101403.16
2022-11-05T05:12:49.386Z,101400.09
2022-11-05T05:15:17.270Z,101393.75
2022-11-05T05:17:44.976Z,101398.75
2022-11-05T05:20:30.240Z,101404.72
2022-11-05T05:22:57.999Z,101403.88
2022-11-05T05:25:25.846Z,101398.66
2022-11-05T05:27:57.609Z,101402.13
2022-11-05T05:30:25.700Z,101402.94
2022-11-05T05:32:53.477Z,101406.03
2022-11-05T05:35:22.595Z,101420.09
2022-11-05T05:37:50.319Z,101419.81
2022-11-05T05:40:18.056Z,101428.38
2022-11-05T05:42:45.791Z,101424.84
2022-11-05T05:45:14.921Z,101425.41
2022-11-05T05:47:42.636Z,101422.38
2022-11-05T05:50:12.190Z,101420.66
2022-11-05T05:52:39.880Z,101419.97
2022-11-05T05:55:07.840Z,101426.09
2022-11-05T05:57:35.930Z,101421.38
2022-11-05T06:00:04.803Z,101425.53
2022-11-05T06:02:34.248Z,101426.69
2022-11-05T06:05:02.108Z,101431.03
2022-11-05T06:07:34.520Z,101434.72
2022-11-05T06:10:06.338Z,101435.38
2022-11-05T06:12:34.163Z,101427.91
2022-11-05T06:15:01.903Z,101418.09
2022-11-05T06:17:29.655Z,101429.44
2022-11-05T06:19:58.791Z,101433.38
2022-11-05T06:22:26.549Z,101430.75
2022-11-05T06:24:55.723Z,101433.34
2022-11-05T06:27:23.429Z,101432.19
2022-11-05T06:29:51.200Z,101425.84
2022-11-05T06:32:18.913Z,101437.94
2022-11-05T06:34:46.660Z,101433.94
2022-11-05T06:37:15.792Z,101443.16
2022-11-05T06:39:43.503Z,101447.44
2022-11-05T06:42:18.359Z,101440.63
2022-11-05T06:44:46.935Z,101443.59
2022-11-05T06:47:14.729Z,101453.91
2022-11-05T06:49:42.493Z,101447.66
2022-11-05T06:52:10.264Z,101440.81
2022-11-05T06:54:39.674Z,101436.53
2022-11-05T06:57:09.548Z,101428.88
2022-11-05T06:59:37.598Z,101438.22
2022-11-05T07:02:06.353Z,101433.47
2022-11-05T07:04:34.596Z,101417.97
2022-11-05T07:07:02.468Z,101415.28
2022-11-05T07:09:30.697Z,101410.34
2022-11-05T07:11:59.753Z,101411.19
2022-11-05T07:14:27.506Z,101402.25
2022-11-05T07:16:55.292Z,101416.34
2022-11-05T07:19:24.945Z,101412.25
2022-11-05T07:21:52.680Z,101410.78
2022-11-05T07:24:20.344Z,101398.34
2022-11-05T07:26:49.407Z,101391.53
2022-11-05T07:29:19.651Z,101377.63
2022-11-05T07:31:47.978Z,101367.09
2022-11-05T07:34:15.685Z,101352.53
2022-11-05T07:36:52.049Z,101331.41
2022-11-05T07:39:27.083Z,101269.63
2022-11-05T07:41:55.724Z,101198.91
2022-11-05T07:44:25.127Z,101150.56
2022-11-05T07:46:53.314Z,101106.22
2022-11-05T07:49:21.059Z,101056.38
2022-11-05T07:51:48.819Z,101029.03
2022-11-05T07:54:16.629Z,101007.13
2022-11-05T07:56:45.051Z,100985.06
2022-11-05T07:59:13.125Z,100936.66
2022-11-05T08:01:42.296Z,100896.75
2022-11-05T08:04:10.527Z,100872.97
2022-11-05T08:06:38.598Z,100845.06
2022-11-05T08:09:06.553Z,100828.91
2022-11-05T08:11:35.897Z,100781.78
2022-11-05T08:14:03.680Z,100773.28
2022-11-05T08:16:31.398Z,100757.50
2022-11-05T08:19:00.765Z,100737.69
2022-11-05T08:21:28.568Z,100750.97
2022-11-05T08:23:56.659Z,100900.16
2022-11-05T08:26:24.548Z,101137.88
2022-11-05T08:28:52.367Z,101006.78
2022-11-05T08:31:20.155Z,100999.72
2022-11-05T08:33:47.968Z,101040.97
2022-11-05T08:36:17.069Z,101064.34
2022-11-05T08:38:44.835Z,101098.72
2022-11-05T08:41:12.795Z,101113.66
2022-11-05T08:43:40.665Z,101104.28
2022-11-05T08:46:08.537Z,101108.06
2022-11-05T08:48:36.264Z,101101.63
2022-11-05T08:51:04.175Z,101125.50
2022-11-05T08:53:33.240Z,101080.75
2022-11-05T08:56:01.028Z,101119.66
2022-11-05T08:58:29.917Z,101116.97
2022-11-05T09:01:05.773Z,101152.47
2022-11-05T09:03:33.720Z,101138.69
2022-11-05T09:06:01.639Z,101158.66
2022-11-05T09:08:29.466Z,101145.03
2022-11-05T09:10:58.585Z,101160.16
2022-11-05T09:13:28.896Z,101169.88
2022-11-05T09:15:59.319Z,101174.31
2022-11-05T09:18:29.692Z,101159.34
2022-11-05T09:20:57.500Z,101210.22
2022-11-05T09:23:25.205Z,101166.38
2022-11-05T09:25:53.206Z,101211.03
2022-11-05T09:28:24.070Z,101206.59
2022-11-05T09:30:53.874Z,101224.66
2022-11-05T09:33:23.978Z,101241.69
2022-11-05T09:35:51.805Z,101260.38
2022-11-05T09:38:20.329Z,101271.75
2022-11-05T09:40:55.385Z,101283.25
2022-11-05T09:43:31.658Z,101301.28
2022-11-05T09:46:03.371Z,101284.28
2022-11-05T09:48:33.783Z,101284.00
2022-11-05T09:51:06.654Z,101291.25
2022-11-05T09:53:40.808Z,101309.63
2022-11-05T09:56:21.080Z,101318.66
2022-11-05T09:58:54.447Z,101313.69
2022-11-05T10:01:26.387Z,101323.69
2022-11-05T10:03:58.042Z,101316.47
2022-11-05T10:06:28.688Z,101323.72
2022-11-05T10:09:03.963Z,101312.69
2022-11-05T10:11:36.622Z,101315.50
2022-11-05T10:14:11.690Z,101318.97
2022-11-05T10:16:43.458Z,101308.81
2022-11-05T10:19:22.029Z,101347.81
2022-11-05T10:22:06.006Z,101343.78
2022-11-05T10:24:34.669Z,101348.44
2022-11-05T10:27:02.774Z,101350.19
2022-11-05T10:29:34.740Z,101360.47
2022-11-05T10:32:05.854Z,101352.56
2022-11-05T10:34:42.859Z,101346.94
2022-11-05T10:37:13.655Z,101360.63
2022-11-05T10:39:45.106Z,101344.53
2022-11-05T10:42:39.446Z,101352.78
2022-11-05T10:45:20.920Z,101353.16
2022-11-05T10:47:59.125Z,101359.88
2022-11-05T10:50:29.979Z,101355.47
2022-11-05T10:53:00.576Z,101366.84
2022-11-05T10:55:30.800Z,101369.63
2022-11-05T10:58:10.476Z,101378.81
2022-11-05T11:00:39.794Z,101367.53
2022-11-05T11:03:40.237Z,101370.16
2022-11-05T11:06:27.740Z,101376.66
2022-11-05T11:08:57.700Z,101375.22
2022-11-05T11:11:35.726Z,101379.19
2022-11-05T11:14:08.060Z,101381.31
2022-11-05T11:16:39.637Z,101383.25
2022-11-05T11:19:26.709Z,101387.53
2022-11-05T11:22:19.783Z,101380.47
2022-11-05T11:24:49.676Z,101389.22
2022-11-05T11:27:22.146Z,101389.47
2022-11-05T11:29:55.579Z,101388.03
2022-11-05T11:32:28.457Z,101380.81
2022-11-05T11:34:58.131Z,101384.69
2022-11-05T11:37:28.861Z,101378.50
2022-11-05T11:40:01.112Z,101393.09
2022-11-05T11:42:32.912Z,101410.81
2022-11-05T11:45:05.361Z,101408.31
2022-11-05T11:47:35.205Z,101402.91
2022-11-05T11:50:03.964Z,101406.09
2022-11-05T11:52:33.083Z,101388.63
2022-11-05T11:55:21.186Z,101392.72
2022-11-05T11:57:50.664Z,101382.91
2022-11-05T12:00:20.219Z,101392.78
2022-11-05T12:03:07.818Z,101377.03
2022-11-05T12:05:44.722Z,101392.13
2022-11-05T12:08:26.699Z,101377.78
2022-11-05T12:11:04.153Z,101401.03
2022-11-05T12:14:04.387Z,101414.59
2022-11-05T12:17:03.050Z,101395.00
2022-11-05T12:19:48.274Z,101394.50
2022-11-05T12:22:21.599Z,101399.09
2022-11-05T12:25:14.476Z,101411.78
2022-11-05T12:27:56.576Z,101391.53
2022-11-05T12:30:24.637Z,101383.81
2022-11-05T12:33:14.566Z,101394.78
2022-11-05T12:35:57.751Z,101396.94
2022-11-05T12:38:50.067Z,101396.88
2022-11-05T12:41:27.639Z,101394.94
2022-11-05T12:44:10.992Z,101392.91
2022-11-05T12:46:46.479Z,101385.84
2022-11-05T12:49:31.935Z,101389.38
2022-11-05T12:52:18.513Z,101385.00
2022-11-05T12:55:04.659Z,101388.38
2022-11-05T12:57:44.985Z,101370.31
2022-11-05T13:00:19.991Z,101377.53
2022-11-05T13:02:53.959Z,101382.34
2022-11-05T13:05:28.951Z,101408.09
2022-11-05T13:08:07.459Z,101392.88
2022-11-05T13:10:40.660Z,101405.44
2022-11-05T13:13:17.284Z,101400.13
2022-11-05T13:15:51.731Z,101393.75
2022-11-05T13:18:26.614Z,101404.72
2022-11-05T13:20:58.692Z,101400.53
2022-11-05T13:23:39.054Z,101410.81
2022-11-05T13:26:15.668Z,101393.31
2022-11-05T13:28:52.835Z,101392.03
2022-11-05T13:31:24.538Z,101406.66
2022-11-05T13:33:56.471Z,101402.75
2022-11-05T13:36:46.184Z,101404.13
2022-11-05T13:39:20.621Z,101408.28
2022-11-05T13:42:25.070Z,101399.06
2022-11-05T13:45:07.720Z,101396.91
2022-11-05T13:48:02.657Z,101412.22
2022-11-05T13:51:08.550Z,101397.75
2022-11-05T13:54:14.494Z,101388.31
2022-11-05T13:57:02.884Z,101401.56
2022-11-05T13:59:44.583Z,101388.38
2022-11-05T14:02:17.731Z,101393.34
2022-11-05T14:04:48.435Z,101395.03
2022-11-05T14:07:20.550Z,101396.03
2022-11-05T14:09:54.713Z,101394.84
2022-11-05T14:12:29.317Z,101394.69
2022-11-05T14:15:05.000Z,101403.97
2022-11-05T14:17:36.533Z,101409.91
2022-11-05T14:20:24.165Z,101404.59
2022-11-05T14:22:52.308Z,101405.50
2022-11-05T14:25:54.904Z,101394.91
2022-11-05T14:28:41.811Z,101400.19
2022-11-05T14:32:02.633Z,101396.03
2022-11-05T14:34:40.384Z,101400.72
2022-11-05T14:37:33.581Z,101402.22
2022-11-05T14:40:36.294Z,101400.31
2022-11-05T14:43:07.271Z,101405.44
2022-11-05T14:45:38.559Z,101397.84
2022-11-05T14:48:24.559Z,101393.97
2022-11-05T14:50:53.008Z,101400.47
2022-11-05T14:53:32.776Z,101393.22
2022-11-05T14:56:04.288Z,101368.28
2022-11-05T14:58:38.032Z,101375.06
2022-11-05T15:01:09.666Z,101374.00
2022-11-05T15:04:17.372Z,101379.03
2022-11-05T15:07:14.807Z,101360.34
2022-11-05T15:09:45.893Z,101350.31
2022-11-05T15:12:20.352Z,101362.00
2022-11-05T15:14:55.407Z,101349.34
2022-11-05T15:17:30.246Z,101327.97
2022-11-05T15:20:08.139Z,101313.66
2022-11-05T15:22:41.728Z,101322.81
2022-11-05T15:25:19.050Z,101276.63
2022-11-05T15:28:00.046Z,101268.31
2022-11-05T15:30:27.842Z,101251.00
2022-11-05T15:33:09.457Z,101235.09
2022-11-05T15:35:43.766Z,101240.97
2022-11-05T15:38:27.919Z,101228.25
2022-11-05T15:41:03.482Z,101231.72
2022-11-05T15:43:31.911Z,101222.09
2022-11-05T15:46:01.816Z,101232.97
2022-11-05T15:48:31.355Z,101220.00
2022-11-05T15:50:59.671Z,101217.31
2022-11-05T15:53:56.023Z,101212.97
2022-11-05T15:56:27.816Z,101201.03
2022-11-05T15:59:03.667Z,101204.06
2022-11-05T16:01:34.509Z,101218.56
2022-11-05T16:04:13.949Z,101184.28
2022-11-05T16:06:43.916Z,101187.03
2022-11-05T16:09:22.094Z,101208.69
2022-11-05T16:11:49.834Z,101199.56
2022-11-05T16:14:20.139Z,101218.19
2022-11-05T16:16:47.932Z,101236.84
2022-11-05T16:19:40.284Z,101236.78
2022-11-05T16:22:08.784Z,101230.59
2022-11-05T16:24:36.737Z,101227.94
2022-11-05T16:27:07.040Z,101217.84
2022-11-05T16:29:37.060Z,101203.13
2022-11-05T16:32:07.574Z,101178.94
2022-11-05T16:34:41.274Z,101177.94
2022-11-05T16:37:13.332Z,101182.06
2022-11-05T16:39:41.060Z,101195.66
2022-11-05T16:42:39.558Z,101180.41
2022-11-05T16:45:08.665Z,101163.31
2022-11-05T16:47:36.443Z,101131.56
2022-11-05T16:50:14.460Z,101077.22
2022-11-05T16:52:43.816Z,101097.41
2022-11-05T16:55:11.906Z,101088.22
2022-11-05T16:57:43.471Z,101063.50
2022-11-05T17:00:14.448Z,101084.91
2022-11-05T17:02:42.423Z,101046.19
2022-11-05T17:05:18.774Z,101045.53
2022-11-05T17:07:46.981Z,101056.84
2022-11-05T17:10:14.815Z,101060.56
2022-11-05T17:12:45.210Z,101051.78
2022-11-05T17:15:22.796Z,101039.09
2022-11-05T17:17:51.274Z,101034.09
2022-11-05T17:20:28.678Z,101038.91
2022-11-05T17:23:00.540Z,101030.72
2022-11-05T17:25:29.403Z,101041.97
2022-11-05T17:27:57.543Z,101032.63
2022-11-05T17:30:25.957Z,101032.47
2022-11-05T17:32:54.009Z,101024.47
2022-11-05T17:35:26.066Z,101018.75
2022-11-05T17:37:56.954Z,101028.31
2022-11-05T17:40:24.990Z,101026.81
2022-11-05T17:42:56.927Z,101035.19
2022-11-05T17:45:24.689Z,101041.31
2022-11-05T17:47:52.385Z,101035.66
2022-11-05T17:50:20.359Z,101038.03
2022-11-05T17:52:49.533Z,101044.63
2022-11-05T17:55:17.849Z,101033.63
2022-11-05T17:57:48.588Z,101036.47
2022-11-05T18:00:20.260Z,101046.72
2022-11-05T18:02:49.686Z,101035.88
2022-11-05T18:05:18.116Z,101037.56
2022-11-05T18:07:47.371Z,101042.09
2022-11-05T18:10:17.557Z,101051.06
2022-11-05T18:12:46.322Z,101049.59
2022-11-05T18:15:14.889Z,101038.59
2022-11-05T18:17:42.857Z,101040.41
2022-11-05T18:20:17.392Z,101036.53
2022-11-05T18:22:46.871Z,101027.34
2022-11-05T18:25:16.155Z,101034.16
2022-11-05T18:27:44.668Z,101042.34
2022-11-05T18:30:15.480Z,101046.34
2022-11-05T18:32:44.277Z,101037.13
2022-11-05T18:35:13.176Z,101039.34
2022-11-05T18:37:41.275Z,101040.63
2022-11-05T18:40:09.566Z,101035.63
2022-11-05T18:42:38.917Z,101042.31
2022-11-05T18:45:08.140Z,101045.38
2022-11-05T18:47:35.969Z,101041.38
2022-11-05T18:50:04.214Z,101043.06
2022-11-05T18:52:32.856Z,101037.56
2022-11-05T18:55:00.959Z,101030.31
2022-11-05T18:57:28.738Z,101035.97
2022-11-05T18:59:57.815Z,101038.31
2022-11-05T19:02:25.669Z,101038.50
2022-11-05T19:05:26.776Z,101042.78
2022-11-05T19:07:41.315Z,101063.03
2022-11-05T19:10:09.545Z,101085.94
2022-11-05T19:12:38.924Z,101094.66
2022-11-05T19:15:09.282Z,101092.47
2022-11-05T19:17:38.926Z,101089.09
2022-11-05T19:20:08.139Z,101123.38
2022-11-05T19:22:35.853Z,101105.78
2022-11-05T19:25:03.599Z,101154.03
2022-11-05T19:27:31.573Z,101137.94
2022-11-05T19:29:59.287Z,101129.56
2022-11-05T19:32:28.443Z,101116.28
2022-11-05T19:34:56.167Z,101110.97
2022-11-05T19:37:23.862Z,101108.53
2022-11-05T19:39:52.033Z,101117.88
2022-11-05T19:42:19.736Z,101125.06
2022-11-05T19:44:47.497Z,101175.19
2022-11-05T19:47:15.221Z,101190.69
2022-11-05T19:49:44.257Z,101199.16
2022-11-05T19:52:11.944Z,101185.50
2022-11-05T19:54:39.834Z,101163.41
2022-11-05T19:57:07.600Z,101152.00
2022-11-05T19:59:35.291Z,101163.69
2022-11-05T20:02:03.107Z,101171.38
2022-11-05T20:04:30.973Z,101161.13
2022-11-05T20:07:00.254Z,101153.81
2022-11-05T20:09:28.117Z,101143.94
2022-11-05T20:11:58.856Z,101143.22
2022-11-05T20:14:27.559Z,101143.81
2022-11-05T20:16:55.810Z,101132.75
2022-11-05T20:19:24.258Z,101123.19
2022-11-05T20:21:52.204Z,101136.78
2022-11-05T20:24:25.149Z,101149.88
2022-11-05T20:26:54.624Z,101140.75
2022-11-05T20:29:23.310Z,101171.44
2022-11-05T20:31:51.598Z,101183.47
2022-11-05T20:34:19.458Z,101180.34
2022-11-05T20:36:47.289Z,101157.50
2022-11-05T20:39:15.054Z,101166.53
2022-11-05T20:41:44.354Z,101153.09
2022-11-05T20:44:12.091Z,101165.91
2022-11-05T20:46:39.890Z,101169.78
2022-11-05T20:49:07.808Z,101180.09
2022-11-05T20:51:35.523Z,101171.44
2022-11-05T20:54:03.925Z,101167.50
2022-11-05T20:56:34.681Z,101166.28
2022-11-05T20:59:05.455Z,101169.03
2022-11-05T21:01:35.124Z,101165.84
2022-11-05T21:04:04.269Z,101194.50
2022-11-05T21:06:32.795Z,101231.34
2022-11-05T21:09:00.806Z,101180.78
2022-11-05T21:11:29.039Z,101178.25
2022-11-05T21:13:56.782Z,101190.56
2022-11-05T21:16:25.938Z,101205.66
2022-11-05T21:18:53.686Z,101190.66
2022-11-05T21:21:21.774Z,101193.78
2022-11-05T21:23:49.681Z,101224.41
2022-11-05T21:26:19.962Z,101202.44
2022-11-05T21:28:47.836Z,101178.31
2022-11-05T21:31:15.543Z,101177.09
2022-11-05T21:33:44.641Z,101190.88
2022-11-05T21:36:14.159Z,101181.63
2022-11-05T21:38:42.709Z,101178.66
2022-11-05T21:41:12.557Z,101183.34
2022-11-05T21:43:41.688Z,101192.25
2022-11-05T21:46:10.723Z,101184.66
2022-11-05T21:48:38.684Z,101197.72
2022-11-05T21:51:25.315Z,101200.38
2022-11-05T21:54:10.558Z,101205.31
2022-11-05T21:56:56.188Z,101215.00
2022-11-05T21:59:43.076Z,101196.31
2022-11-05T22:02:13.341Z,101193.53
2022-11-05T22:04:42.964Z,101190.25
2022-11-05T22:07:13.937Z,101157.25
2022-11-05T22:09:42.283Z,101146.53
2022-11-05T22:12:10.393Z,101165.47
2022-11-05T22:14:38.188Z,101165.06
2022-11-05T22:17:06.028Z,101157.25
2022-11-05T22:19:34.245Z,101165.00
2022-11-05T22:22:02.220Z,101167.09
2022-11-05T22:24:31.953Z,101179.28
2022-11-05T22:27:00.223Z,101192.38
2022-11-05T22:29:28.702Z,101180.69
2022-11-05T22:31:57.037Z,101170.59
2022-11-05T22:34:25.710Z,101166.97
2022-11-05T22:36:53.872Z,101162.66
2022-11-05T22:39:23.989Z,101156.16
2022-11-05T22:41:55.789Z,101155.19
2022-11-05T22:44:24.175Z,101141.53
2022-11-05T22:46:51.950Z,101159.94
2022-11-05T22:49:21.412Z,101152.31
2022-11-05T22:51:49.200Z,101152.06
2022-11-05T22:54:17.539Z,101125.16
2022-11-05T22:56:45.581Z,101120.16
2022-11-05T22:59:16.050Z,101117.41
2022-11-05T23:01:45.601Z,101130.69
2022-11-05T23:04:14.047Z,101140.72
2022-11-05T23:07:01.572Z,101133.59
2022-11-05T23:09:48.708Z,101141.59
2022-11-05T23:12:27.073Z,101162.34
2022-11-05T23:14:57.621Z,101164.50
2022-11-05T23:17:42.896Z,101181.91
2022-11-05T23:20:32.169Z,101216.88
2022-11-05T23:23:17.563Z,101259.63
2022-11-05T23:25:45.649Z,101266.38
2022-11-05T23:28:14.211Z,101265.34
2022-11-05T23:30:59.332Z,101287.88
2022-11-05T23:33:27.147Z,101253.28
2022-11-05T23:36:12.786Z,101245.75
2022-11-05T23:38:40.932Z,101254.50
2022-11-05T23:41:26.363Z,101259.78
2022-11-05T23:44:11.590Z,101265.28
2022-11-05T23:46:58.152Z,101242.50
2022-11-05T23:49:25.873Z,101248.50
2022-11-05T23:51:53.603Z,101258.81
2022-11-05T23:54:21.926Z,101269.34
2022-11-05T23:56:49.676Z,101234.50
2022-11-05T23:59:19.474Z,101233.50
